KARB/ARB METAR and TAF weather

Enter ICAO airport designator
Station Type Date Time Source
KARB METAR 2019/06/18 11:53 UTC NOAA

KARB 181153Z 00000KT 6SM BR OVC039 16/14 A2997 RMK AO2 SLP147 T01560144 10161 20111 52004


Station Type Date Time Source
KARB Decoded METAR 2019/06/18 11:53 UTC NOAA

ANN ARBOR MUNICIPAL AIRPORT, MI, United States (KARB) 42-13N 083-45W 251M
Jun 18, 2019 - 07:53 AM EDT / 2019.06.18 1153 UTC
Wind: Calm:0
Visibility: 6 mile(s):0
Sky conditions: overcast
Weather: mist
Temperature: 60.1 F (15.6 C)
Dew Point: 57.9 F (14.4 C)
Relative Humidity: 92%
Pressure (altimeter): 29.97 in. Hg (1014 hPa)
Pressure tendency: 0.01 inches (0.4 hPa) higher than three hours ago
ob: KARB 181153Z 00000KT 6SM BR OVC039 16/14 A2997 RMK AO2 SLP147 T01560144 10161 20111 52004
cycle: 12

Station Type Date Time Source
KARB TAF UTC NOAA

Error!

Example: see airport list